createdAt,value
2022-09-03T00:02:08.438Z,14.17
2022-09-03T00:04:48.017Z,13.57
2022-09-03T00:07:21.254Z,13.61
2022-09-03T00:09:55.611Z,13.69
2022-09-03T00:12:27.389Z,13.96
2022-09-03T00:15:01.834Z,13.95
2022-09-03T00:17:33.454Z,13.77
2022-09-03T00:20:06.367Z,13.63
2022-09-03T00:22:39.269Z,12.92
2022-09-03T00:25:13.004Z,12.97
2022-09-03T00:27:42.787Z,13.52
2022-09-03T00:30:14.635Z,13.32
2022-09-03T00:32:47.847Z,13.80
2022-09-03T00:35:20.835Z,14.00
2022-09-03T00:37:49.964Z,13.86
2022-09-03T00:40:33.468Z,13.71
2022-09-03T00:43:11.029Z,13.17
2022-09-03T00:45:45.499Z,13.43
2022-09-03T00:48:28.364Z,13.52
2022-09-03T00:51:11.844Z,13.16
2022-09-03T00:53:51.351Z,13.28
2022-09-03T00:56:28.347Z,13.65
2022-09-03T00:59:09.325Z,13.26
2022-09-03T01:01:47.831Z,13.50
2022-09-03T01:04:29.192Z,13.24
2022-09-03T01:07:06.059Z,13.08
2022-09-03T01:09:48.981Z,13.34
2022-09-03T01:12:25.344Z,13.53
2022-09-03T01:15:05.269Z,13.67
2022-09-03T01:17:45.575Z,13.62
2022-09-03T01:20:24.090Z,13.54
2022-09-03T01:23:29.086Z,13.46
2022-09-03T01:26:12.116Z,13.23
2022-09-03T01:28:55.294Z,13.14
2022-09-03T01:31:36.139Z,13.00
2022-09-03T01:34:14.128Z,13.13
2022-09-03T01:36:50.745Z,13.13
2022-09-03T01:39:27.664Z,13.02
2022-09-03T01:42:20.965Z,13.14
2022-09-03T01:45:12.037Z,12.81
2022-09-03T01:47:51.860Z,13.04
2022-09-03T01:50:34.766Z,12.84
2022-09-03T01:53:11.727Z,13.11
2022-09-03T01:55:56.030Z,13.14
2022-09-03T01:58:31.354Z,13.02
2022-09-03T02:01:07.206Z,12.88
2022-09-03T02:03:40.788Z,12.74
2022-09-03T02:06:09.033Z,12.68
2022-09-03T02:08:36.521Z,13.00
2022-09-03T02:11:07.991Z,12.85
2022-09-03T02:13:39.651Z,12.93
2022-09-03T02:16:14.009Z,12.88
2022-09-03T02:18:46.885Z,12.63
2022-09-03T02:21:17.733Z,12.58
2022-09-03T02:23:45.309Z,12.74
2022-09-03T02:26:17.521Z,12.72
2022-09-03T02:28:45.579Z,12.57
2022-09-03T02:31:14.720Z,12.82
2022-09-03T02:33:45.018Z,13.21
2022-09-03T02:36:15.356Z,13.01
2022-09-03T02:38:44.311Z,13.30
2022-09-03T02:41:15.003Z,13.38
2022-09-03T02:43:47.167Z,13.35
2022-09-03T02:46:21.845Z,13.42
2022-09-03T02:48:49.553Z,13.43
2022-09-03T02:51:17.052Z,13.42
2022-09-03T02:53:45.015Z,13.11
2022-09-03T02:56:12.951Z,13.04
2022-09-03T02:58:40.893Z,13.25
2022-09-03T03:01:08.466Z,13.16
2022-09-03T03:03:37.325Z,12.87
2022-09-03T03:06:07.215Z,13.13
2022-09-03T03:08:35.167Z,13.14
2022-09-03T03:11:02.956Z,13.21
2022-09-03T03:13:31.886Z,13.05
2022-09-03T03:16:00.748Z,13.07
2022-09-03T03:18:28.929Z,12.76
2022-09-03T03:20:57.915Z,12.89
2022-09-03T03:23:25.416Z,12.65
2022-09-03T03:25:52.912Z,12.88
2022-09-03T03:28:20.601Z,13.07
2022-09-03T03:30:48.996Z,13.46
2022-09-03T03:33:16.626Z,12.86
2022-09-03T03:35:44.115Z,13.24
2022-09-03T03:38:13.112Z,13.37
2022-09-03T03:40:40.643Z,12.64
2022-09-03T03:43:08.181Z,12.44
2022-09-03T03:45:35.810Z,12.27
2022-09-03T03:48:03.587Z,12.78
2022-09-03T03:50:31.082Z,13.09
2022-09-03T03:53:00.829Z,13.26
2022-09-03T03:55:34.999Z,12.96
2022-09-03T03:58:02.901Z,12.78
2022-09-03T04:00:30.373Z,12.19
2022-09-03T04:02:57.997Z,12.39
2022-09-03T04:05:25.532Z,12.71
2022-09-03T04:07:54.378Z,13.20
2022-09-03T04:10:21.936Z,13.77
2022-09-03T04:12:50.736Z,13.79
2022-09-03T04:15:18.309Z,13.96
2022-09-03T04:17:45.815Z,13.71
2022-09-03T04:20:13.299Z,13.10
2022-09-03T04:22:40.786Z,13.52
2022-09-03T04:25:09.130Z,13.40
2022-09-03T04:27:36.617Z,13.66
2022-09-03T04:30:06.327Z,13.75
2022-09-03T04:32:52.489Z,14.07
2022-09-03T04:35:20.873Z,14.10
2022-09-03T04:37:48.430Z,13.68
2022-09-03T04:40:15.955Z,13.79
2022-09-03T04:42:43.486Z,13.49
2022-09-03T04:45:18.501Z,14.03
2022-09-03T04:47:47.383Z,14.25
2022-09-03T04:50:14.930Z,14.20
2022-09-03T04:52:42.408Z,14.41
2022-09-03T04:55:12.055Z,14.33
2022-09-03T04:57:39.538Z,14.10
2022-09-03T05:00:11.191Z,14.19
2022-09-03T05:02:40.114Z,14.55
2022-09-03T05:05:08.243Z,14.21
2022-09-03T05:07:38.670Z,14.18
2022-09-03T05:10:08.202Z,13.79
2022-09-03T05:12:36.537Z,14.18
2022-09-03T05:15:05.416Z,14.04
2022-09-03T05:17:37.217Z,14.18
2022-09-03T05:20:08.441Z,15.03
2022-09-03T05:22:36.064Z,15.22
2022-09-03T05:25:03.592Z,15.65
2022-09-03T05:27:32.164Z,16.05
2022-09-03T05:29:59.957Z,16.23
2022-09-03T05:32:28.669Z,16.11
2022-09-03T05:34:56.624Z,16.23
2022-09-03T05:37:25.908Z,16.94
2022-09-03T05:39:53.902Z,16.30
2022-09-03T05:42:21.936Z,16.10
2022-09-03T05:44:49.956Z,16.09
2022-09-03T05:47:17.503Z,16.64
2022-09-03T05:49:44.984Z,15.98
2022-09-03T05:52:12.481Z,15.13
2022-09-03T05:54:41.316Z,15.43
2022-09-03T05:57:08.828Z,16.60
2022-09-03T05:59:36.319Z,16.53
2022-09-03T06:02:03.979Z,17.02
2022-09-03T06:04:31.612Z,16.92
2022-09-03T06:07:00.846Z,17.23
2022-09-03T06:09:28.327Z,19.44
2022-09-03T06:11:57.496Z,20.42
2022-09-03T06:14:27.173Z,21.04
2022-09-03T06:16:55.764Z,21.41
2022-09-03T06:19:23.656Z,22.10
2022-09-03T06:21:51.213Z,21.10
2022-09-03T06:24:23.182Z,21.68
2022-09-03T06:26:54.090Z,21.79
2022-09-03T06:29:22.923Z,20.92
2022-09-03T06:31:50.798Z,18.25
2022-09-03T06:34:19.336Z,19.53
2022-09-03T06:36:46.894Z,21.28
2022-09-03T06:39:14.386Z,22.51
2022-09-03T06:41:41.884Z,23.44
2022-09-03T06:44:12.303Z,23.03
2022-09-03T06:46:43.185Z,24.81
2022-09-03T06:49:11.397Z,25.49
2022-09-03T06:51:39.601Z,24.48
2022-09-03T06:54:08.686Z,24.30
2022-09-03T06:56:40.542Z,24.17
2022-09-03T06:59:09.802Z,24.73
2022-09-03T07:01:40.778Z,24.21
2022-09-03T07:04:16.114Z,24.73
2022-09-03T07:06:44.199Z,26.86
2022-09-03T07:09:13.171Z,28.63
2022-09-03T07:11:46.953Z,29.07
2022-09-03T07:14:15.850Z,29.49
2022-09-03T07:16:43.785Z,27.79
2022-09-03T07:19:13.416Z,27.85
2022-09-03T07:21:48.180Z,29.68
2022-09-03T07:24:17.997Z,30.27
2022-09-03T07:26:46.529Z,29.55
2022-09-03T07:29:15.753Z,30.20
2022-09-03T07:31:44.355Z,31.22
2022-09-03T07:34:16.397Z,30.71
2022-09-03T07:36:47.001Z,32.19
2022-09-03T07:39:18.143Z,32.70
2022-09-03T07:41:46.661Z,32.77
2022-09-03T07:44:16.132Z,32.76
2022-09-03T07:46:46.041Z,31.56
2022-09-03T07:49:14.968Z,29.89
2022-09-03T07:51:42.557Z,29.30
2022-09-03T07:54:11.919Z,28.83
2022-09-03T07:56:40.666Z,27.24
2022-09-03T07:59:08.692Z,26.90
2022-09-03T08:01:41.230Z,26.67
2022-09-03T08:04:10.883Z,25.68
2022-09-03T08:06:40.325Z,24.52
2022-09-03T08:09:11.303Z,23.83
2022-09-03T08:11:40.663Z,22.98
2022-09-03T08:14:10.336Z,23.45
2022-09-03T08:16:39.847Z,24.06
2022-09-03T08:19:07.599Z,24.57
2022-09-03T08:21:35.727Z,24.75
2022-09-03T08:24:05.663Z,24.81
2022-09-03T08:26:35.541Z,24.39
2022-09-03T08:29:04.465Z,24.65
2022-09-03T08:31:33.649Z,24.83
2022-09-03T08:34:06.671Z,23.33
2022-09-03T08:36:39.030Z,22.77
2022-09-03T08:39:10.673Z,22.59
2022-09-03T08:42:02.831Z,22.49
2022-09-03T08:44:35.752Z,23.46
2022-09-03T08:47:10.219Z,24.89
2022-09-03T08:49:44.695Z,25.80
2022-09-03T08:52:26.111Z,26.61
2022-09-03T08:55:01.424Z,26.09
2022-09-03T08:57:33.321Z,26.04
2022-09-03T09:00:00.940Z,25.66
2022-09-03T09:02:42.689Z,25.31
2022-09-03T09:05:14.317Z,26.31
2022-09-03T09:07:47.740Z,27.43
2022-09-03T09:10:23.689Z,27.63
2022-09-03T09:13:06.073Z,27.26
2022-09-03T09:15:41.754Z,27.36
2022-09-03T09:18:19.915Z,27.66
2022-09-03T09:20:50.917Z,28.29
2022-09-03T09:23:25.920Z,27.30
2022-09-03T09:25:58.520Z,26.68
2022-09-03T09:28:30.961Z,26.57
2022-09-03T09:30:58.862Z,26.17
2022-09-03T09:33:26.457Z,26.08
2022-09-03T09:35:53.932Z,26.33
2022-09-03T09:38:29.920Z,25.57
2022-09-03T09:41:09.907Z,24.46
2022-09-03T09:43:37.872Z,24.31
2022-09-03T09:46:10.381Z,25.47
2022-09-03T09:48:46.350Z,24.88
2022-09-03T09:51:18.901Z,25.10
2022-09-03T09:53:46.425Z,26.11
2022-09-03T09:56:23.946Z,26.80
2022-09-03T09:58:52.641Z,27.49
2022-09-03T10:01:25.741Z,28.47
2022-09-03T10:03:55.780Z,27.94
2022-09-03T10:06:43.369Z,27.21
2022-09-03T10:09:13.511Z,28.21
2022-09-03T10:11:46.919Z,28.86
2022-09-03T10:14:26.138Z,27.81
2022-09-03T10:17:01.744Z,27.86
2022-09-03T10:19:37.596Z,27.28
2022-09-03T10:22:10.950Z,27.94
2022-09-03T10:24:52.115Z,29.22
2022-09-03T10:27:22.121Z,29.41
2022-09-03T10:29:50.179Z,29.04
2022-09-03T10:32:37.796Z,27.89
2022-09-03T10:35:20.388Z,26.15
2022-09-03T10:37:54.336Z,26.31
2022-09-03T10:40:31.668Z,26.26
2022-09-03T10:43:17.711Z,26.37
2022-09-03T10:45:54.629Z,26.80
2022-09-03T10:48:35.340Z,27.37
2022-09-03T10:51:06.599Z,28.69
2022-09-03T10:53:49.910Z,28.39
2022-09-03T10:56:22.479Z,28.12
2022-09-03T10:59:04.596Z,28.18
2022-09-03T11:01:40.300Z,27.94
2022-09-03T11:04:26.531Z,28.08
2022-09-03T11:06:58.904Z,27.09
2022-09-03T11:09:32.570Z,26.66
2022-09-03T11:12:05.317Z,27.15
2022-09-03T11:14:39.169Z,27.22
2022-09-03T11:17:11.608Z,27.10
2022-09-03T11:19:48.203Z,26.91
2022-09-03T11:22:20.977Z,25.92
2022-09-03T11:24:55.271Z,25.97
2022-09-03T11:27:32.490Z,26.84
2022-09-03T11:30:05.936Z,27.22
2022-09-03T11:32:46.656Z,27.45
2022-09-03T11:35:16.659Z,28.40
2022-09-03T11:37:55.000Z,29.13
2022-09-03T11:40:33.109Z,29.19
2022-09-03T11:43:08.701Z,29.25
2022-09-03T11:45:39.184Z,29.03
2022-09-03T11:48:33.087Z,28.44
2022-09-03T11:51:00.551Z,28.29
2022-09-03T11:53:35.494Z,27.96
2022-09-03T11:56:19.325Z,27.96
2022-09-03T11:58:48.404Z,28.21
2022-09-03T12:01:19.185Z,27.71
2022-09-03T12:03:50.239Z,27.47
2022-09-03T12:06:43.311Z,27.52
2022-09-03T12:09:38.446Z,27.09
2022-09-03T12:12:23.843Z,26.32
2022-09-03T12:15:00.000Z,25.59
2022-09-03T12:17:35.982Z,25.74
2022-09-03T12:20:04.357Z,26.09
2022-09-03T12:22:38.646Z,25.69
2022-09-03T12:25:12.144Z,25.82
2022-09-03T12:27:41.515Z,25.78
2022-09-03T12:30:18.081Z,25.38
2022-09-03T12:32:47.421Z,24.71
2022-09-03T12:38:08.410Z,24.69
2022-09-03T12:41:19.173Z,24.98
2022-09-03T12:43:49.792Z,24.17
2022-09-03T12:46:17.635Z,23.99
2022-09-03T12:51:52.435Z,24.29
2022-09-03T12:54:23.159Z,24.48
2022-09-03T12:56:57.403Z,24.73
2022-09-03T12:59:28.276Z,25.17
2022-09-03T13:01:59.390Z,25.43
2022-09-03T13:04:32.834Z,24.69
2022-09-03T13:07:04.603Z,24.55
2022-09-03T13:09:36.844Z,23.86
2022-09-03T13:12:05.802Z,23.94
2022-09-03T13:14:44.681Z,23.77
2022-09-03T13:17:38.261Z,23.42
2022-09-03T13:20:26.731Z,23.31
2022-09-03T13:23:11.183Z,23.28
2022-09-03T13:25:49.429Z,22.84
2022-09-03T13:28:28.678Z,22.37
2022-09-03T13:31:01.594Z,22.01
2022-09-03T13:33:38.933Z,21.61
2022-09-03T13:36:15.778Z,21.58
2022-09-03T13:38:50.635Z,21.76
2022-09-03T13:41:34.648Z,21.57
2022-09-03T13:44:09.846Z,21.97
2022-09-03T13:46:44.332Z,22.05
2022-09-03T13:49:40.511Z,22.38
2022-09-03T13:52:22.685Z,22.33
2022-09-03T13:54:55.681Z,22.18
2022-09-03T13:57:33.712Z,21.80
2022-09-03T14:00:07.769Z,22.05
2022-09-03T14:02:49.747Z,22.10
2022-09-03T14:05:32.247Z,22.53
2022-09-03T14:08:10.118Z,22.43
2022-09-03T14:10:59.175Z,22.22
2022-09-03T14:13:38.051Z,22.01
2022-09-03T14:16:09.574Z,22.28
2022-09-03T14:18:47.266Z,22.42
2022-09-03T14:21:19.583Z,22.20
2022-09-03T14:23:52.367Z,22.06
2022-09-03T14:26:38.690Z,22.24
2022-09-03T14:29:15.645Z,22.29
2022-09-03T14:31:58.930Z,22.38
2022-09-03T14:34:39.113Z,22.55
2022-09-03T14:37:16.139Z,22.50
2022-09-03T14:39:51.840Z,22.48
2022-09-03T14:42:37.787Z,22.53
2022-09-03T14:45:24.620Z,22.63
2022-09-03T14:48:09.687Z,22.71
2022-09-03T14:51:06.247Z,23.09
2022-09-03T14:53:58.377Z,22.89
2022-09-03T14:56:41.822Z,23.40
2022-09-03T14:59:43.635Z,23.40
2022-09-03T15:02:31.011Z,23.72
2022-09-03T15:05:12.245Z,23.94
2022-09-03T15:07:47.731Z,23.99
2022-09-03T15:10:22.867Z,23.83
2022-09-03T15:12:54.261Z,23.71
2022-09-03T15:15:26.343Z,23.69
2022-09-03T15:18:10.861Z,23.85
2022-09-03T15:20:50.656Z,24.05
2022-09-03T15:23:47.100Z,24.10
2022-09-03T15:26:41.551Z,24.14
2022-09-03T15:29:30.124Z,23.99
2022-09-03T15:32:07.894Z,24.33
2022-09-03T15:34:51.711Z,24.57
2022-09-03T15:37:24.672Z,24.52
2022-09-03T15:40:02.483Z,24.63
2022-09-03T15:42:31.313Z,24.46
2022-09-03T15:45:07.398Z,24.40
2022-09-03T15:47:51.567Z,24.38
2022-09-03T15:50:30.527Z,24.06
2022-09-03T15:53:04.862Z,23.70
2022-09-03T15:55:37.018Z,23.20
2022-09-03T15:58:14.328Z,23.27
2022-09-03T16:01:00.122Z,23.36
2022-09-03T16:03:46.720Z,23.51
2022-09-03T16:06:26.140Z,23.27
2022-09-03T16:08:58.475Z,23.17
2022-09-03T16:11:37.094Z,22.86
2022-09-03T16:14:12.171Z,22.53
2022-09-03T16:16:54.993Z,22.18
2022-09-03T16:19:28.011Z,21.98
2022-09-03T16:22:00.801Z,22.05
2022-09-03T16:24:38.453Z,22.35
2022-09-03T16:27:12.179Z,22.42
2022-09-03T16:29:40.511Z,22.41
2022-09-03T16:32:27.027Z,22.26
2022-09-03T16:35:05.208Z,22.59
2022-09-03T16:37:39.400Z,22.67
2022-09-03T16:40:17.228Z,22.82
2022-09-03T16:42:51.715Z,22.72
2022-09-03T16:45:30.810Z,22.80
2022-09-03T16:48:17.354Z,22.69
2022-09-03T16:51:04.360Z,22.45
2022-09-03T16:53:50.465Z,22.56
2022-09-03T16:56:36.548Z,23.13
2022-09-03T16:59:17.849Z,23.00
2022-09-03T17:02:01.876Z,22.95
2022-09-03T17:04:54.700Z,22.99
2022-09-03T17:07:37.605Z,23.15
2022-09-03T17:10:14.535Z,23.25
2022-09-03T17:12:50.812Z,23.17
2022-09-03T17:15:31.420Z,23.09
2022-09-03T17:18:17.467Z,22.72
2022-09-03T17:21:01.823Z,22.43
2022-09-03T17:23:49.820Z,21.87
2022-09-03T17:26:29.240Z,21.46
2022-09-03T17:29:12.829Z,21.45
2022-09-03T17:31:51.383Z,21.45
2022-09-03T17:34:39.883Z,21.43
2022-09-03T17:37:23.123Z,21.23
2022-09-03T17:40:08.911Z,21.20
2022-09-03T17:42:49.840Z,20.92
2022-09-03T17:45:28.165Z,20.76
2022-09-03T17:48:14.850Z,20.61
2022-09-03T17:50:51.151Z,20.34
2022-09-03T17:53:26.046Z,20.28
2022-09-03T17:55:58.679Z,20.36
2022-09-03T17:58:32.619Z,20.05
2022-09-03T18:01:07.895Z,20.08
2022-09-03T18:03:44.966Z,20.07
2022-09-03T18:06:24.001Z,20.03
2022-09-03T18:08:58.684Z,19.99
2022-09-03T18:11:34.062Z,19.94
2022-09-03T18:14:11.185Z,19.62
2022-09-03T18:16:43.352Z,19.24
2022-09-03T18:19:19.419Z,19.57
2022-09-03T18:22:07.802Z,19.25
2022-09-03T18:25:01.967Z,18.71
2022-09-03T18:27:52.497Z,18.70
2022-09-03T18:30:37.854Z,18.67
2022-09-03T18:33:23.451Z,18.73
2022-09-03T18:36:08.208Z,19.08
2022-09-03T18:38:55.075Z,19.13
2022-09-03T18:42:03.443Z,19.22
2022-09-03T18:45:20.241Z,18.84
2022-09-03T18:48:20.766Z,18.84
2022-09-03T18:51:15.529Z,19.30
2022-09-03T18:54:08.874Z,19.38
2022-09-03T18:57:01.483Z,19.33
2022-09-03T19:00:19.115Z,19.43
2022-09-03T19:03:15.648Z,19.00
2022-09-03T19:06:14.265Z,19.48
2022-09-03T19:09:07.284Z,19.43
2022-09-03T19:12:00.068Z,19.42
2022-09-03T19:14:53.375Z,18.98
2022-09-03T19:17:48.765Z,18.81
2022-09-03T19:20:43.685Z,18.67
2022-09-03T19:23:28.863Z,18.59
2022-09-03T19:26:19.542Z,18.18
2022-09-03T19:29:10.671Z,18.18
2022-09-03T19:32:03.551Z,17.90
2022-09-03T19:35:10.631Z,18.23
2022-09-03T19:38:00.071Z,18.87
2022-09-03T19:40:59.539Z,18.85
2022-09-03T19:43:55.004Z,18.74
2022-09-03T19:46:52.755Z,18.65
2022-09-03T19:49:48.760Z,18.65
2022-09-03T19:52:43.179Z,18.47
2022-09-03T19:55:31.549Z,18.20
2022-09-03T19:58:41.493Z,18.68
2022-09-03T20:01:24.585Z,18.95
2022-09-03T20:04:11.285Z,19.01
2022-09-03T20:06:57.584Z,19.06
2022-09-03T20:09:48.438Z,19.06
2022-09-03T20:12:21.020Z,19.01
2022-09-03T20:14:48.646Z,18.97
2022-09-03T20:17:27.968Z,19.01
2022-09-03T20:20:16.621Z,18.77
2022-09-03T20:22:51.852Z,18.58
2022-09-03T20:25:36.111Z,18.85
2022-09-03T20:28:15.578Z,18.66
2022-09-03T20:30:48.866Z,18.79
2022-09-03T20:33:32.083Z,18.95
2022-09-03T20:36:14.893Z,19.02
2022-09-03T20:39:11.022Z,19.10
2022-09-03T20:41:50.143Z,18.42
2022-09-03T20:44:33.197Z,18.90
2022-09-03T20:47:16.013Z,18.80
2022-09-03T20:49:53.981Z,18.97
2022-09-03T20:52:34.234Z,19.01
2022-09-03T20:55:08.846Z,19.09
2022-09-03T20:57:45.669Z,19.13
2022-09-03T21:00:15.722Z,18.85
2022-09-03T21:03:03.623Z,18.95
2022-09-03T21:05:35.583Z,18.52
2022-09-03T21:08:13.195Z,18.72
2022-09-03T21:10:49.011Z,18.82
2022-09-03T21:13:32.685Z,18.85
2022-09-03T21:16:25.287Z,18.85
2022-09-03T21:19:00.472Z,18.80
2022-09-03T21:21:40.328Z,18.67
2022-09-03T21:24:15.547Z,18.66
2022-09-03T21:26:50.456Z,18.67
2022-09-03T21:29:24.205Z,18.55
2022-09-03T21:31:57.392Z,18.53
2022-09-03T21:34:30.835Z,18.47
2022-09-03T21:37:00.756Z,18.38
2022-09-03T21:39:33.386Z,18.18
2022-09-03T21:42:06.445Z,18.19
2022-09-03T21:44:51.775Z,18.36
2022-09-03T21:47:21.231Z,18.17
2022-09-03T21:50:03.588Z,18.06
2022-09-03T21:52:40.580Z,18.09
2022-09-03T21:55:32.173Z,18.12
2022-09-03T21:58:11.243Z,18.20
2022-09-03T22:00:39.306Z,18.23
2022-09-03T22:03:09.628Z,18.17
2022-09-03T22:05:49.660Z,18.11
2022-09-03T22:08:25.226Z,17.99
2022-09-03T22:11:01.533Z,17.92
2022-09-03T22:13:32.529Z,17.84
2022-09-03T22:16:13.641Z,17.81
2022-09-03T22:18:41.347Z,17.76
2022-09-03T22:21:19.714Z,17.66
2022-09-03T22:24:07.206Z,17.64
2022-09-03T22:26:45.547Z,17.58
2022-09-03T22:29:20.344Z,17.44
2022-09-03T22:31:58.350Z,17.36
2022-09-03T22:34:46.889Z,17.50
2022-09-03T22:37:25.143Z,17.33
2022-09-03T22:40:03.910Z,17.29
2022-09-03T22:42:47.676Z,17.27
2022-09-03T22:45:40.543Z,17.11
2022-09-03T22:48:22.852Z,17.10
2022-09-03T22:50:57.530Z,17.19
2022-09-03T22:53:42.663Z,17.16
2022-09-03T22:56:12.697Z,17.07
2022-09-03T22:58:47.516Z,16.98
2022-09-03T23:01:19.102Z,16.99
2022-09-03T23:03:54.402Z,16.96
2022-09-03T23:06:26.949Z,16.89
2022-09-03T23:09:01.292Z,16.87
2022-09-03T23:11:34.579Z,16.83
2022-09-03T23:14:06.222Z,16.58
2022-09-03T23:16:39.392Z,16.65
2022-09-03T23:21:57.728Z,16.57
2022-09-03T23:24:29.721Z,16.51
2022-09-03T23:27:01.238Z,16.59
2022-09-03T23:29:36.577Z,16.69
2022-09-03T23:32:05.209Z,16.47
2022-09-03T23:34:33.372Z,16.15
2022-09-03T23:37:35.320Z,16.27
2022-09-03T23:40:21.025Z,16.47
2022-09-03T23:43:05.507Z,16.50
2022-09-03T23:45:44.116Z,16.50
2022-09-03T23:48:23.798Z,16.53
2022-09-03T23:51:03.877Z,16.58
2022-09-03T23:53:47.312Z,16.55
2022-09-03T23:56:35.760Z,16.40
2022-09-03T23:59:13.420Z,16.14
